sensor_id;sensor_type;location;lat;lon;timestamp;pressure;altitude;pressure_sealevel;temperature;humidity
7966;BME280;4028;43.272;26.932;2024-01-15T00:02:09;98575.34;;;2.48;62.51
7966;BME280;4028;43.272;26.932;2024-01-15T00:04:39;98563.63;;;2.53;63.11
7966;BME280;4028;43.272;26.932;2024-01-15T00:07:05;98572.63;;;2.37;63.48
7966;BME280;4028;43.272;26.932;2024-01-15T00:09:30;98538.38;;;2.28;62.92
7966;BME280;4028;43.272;26.932;2024-01-15T00:11:56;98569.72;;;2.28;64.37
7966;BME280;4028;43.272;26.932;2024-01-15T00:14:22;98576.38;;;2.20;64.94
7966;BME280;4028;43.272;26.932;2024-01-15T00:16:47;98579.31;;;2.28;64.75
7966;BME280;4028;43.272;26.932;2024-01-15T00:19:17;98573.38;;;2.00;66.56
7966;BME280;4028;43.272;26.932;2024-01-15T00:21:42;98580.69;;;2.08;66.22
7966;BME280;4028;43.272;26.932;2024-01-15T00:24:08;98573.50;;;2.12;66.57
7966;BME280;4028;43.272;26.932;2024-01-15T00:26:34;98577.84;;;2.24;65.23
7966;BME280;4028;43.272;26.932;2024-01-15T00:28:59;98559.69;;;2.09;65.08
7966;BME280;4028;43.272;26.932;2024-01-15T00:31:25;98574.81;;;2.04;66.80
7966;BME280;4028;43.272;26.932;2024-01-15T00:33:50;98571.91;;;2.22;64.91
7966;BME280;4028;43.272;26.932;2024-01-15T00:36:15;98568.16;;;2.00;66.92
7966;BME280;4028;43.272;26.932;2024-01-15T00:38:42;98574.31;;;1.99;67.11
7966;BME280;4028;43.272;26.932;2024-01-15T00:41:07;98568.47;;;2.08;67.40
7966;BME280;4028;43.272;26.932;2024-01-15T00:43:33;98565.34;;;2.03;66.54
7966;BME280;4028;43.272;26.932;2024-01-15T00:46:02;98569.94;;;2.13;65.76
7966;BME280;4028;43.272;26.932;2024-01-15T00:48:27;98573.78;;;1.94;68.41
7966;BME280;4028;43.272;26.932;2024-01-15T00:50:53;98571.06;;;2.08;67.53
7966;BME280;4028;43.272;26.932;2024-01-15T00:53:20;98572.75;;;2.09;68.38
7966;BME280;4028;43.272;26.932;2024-01-15T00:55:47;98567.22;;;2.27;66.26
7966;BME280;4028;43.272;26.932;2024-01-15T00:58:13;98573.34;;;2.39;65.62
7966;BME280;4028;43.272;26.932;2024-01-15T01:00:38;98566.66;;;2.34;64.87
7966;BME280;4028;43.272;26.932;2024-01-15T01:03:04;98562.41;;;2.33;64.83
7966;BME280;4028;43.272;26.932;2024-01-15T01:05:29;98556.34;;;2.33;65.46
7966;BME280;4028;43.272;26.932;2024-01-15T01:07:55;98557.81;;;2.37;65.20
7966;BME280;4028;43.272;26.932;2024-01-15T01:10:20;98533.16;;;2.28;64.41
7966;BME280;4028;43.272;26.932;2024-01-15T01:12:46;98557.81;;;2.37;65.89
7966;BME280;4028;43.272;26.932;2024-01-15T01:15:11;98564.81;;;2.11;68.42
7966;BME280;4028;43.272;26.932;2024-01-15T01:17:37;98556.06;;;2.12;68.99
7966;BME280;4028;43.272;26.932;2024-01-15T01:20:02;98531.31;;;2.05;68.82
7966;BME280;4028;43.272;26.932;2024-01-15T01:22:29;98552.69;;;2.23;69.24
7966;BME280;4028;43.272;26.932;2024-01-15T01:24:55;98549.88;;;2.26;70.29
7966;BME280;4028;43.272;26.932;2024-01-15T01:27:21;98545.50;;;2.14;71.98
7966;BME280;4028;43.272;26.932;2024-01-15T01:29:47;98537.16;;;2.08;74.27
7966;BME280;4028;43.272;26.932;2024-01-15T01:32:12;98548.72;;;2.04;77.36
7966;BME280;4028;43.272;26.932;2024-01-15T01:34:41;98551.13;;;1.82;79.92
7966;BME280;4028;43.272;26.932;2024-01-15T01:37:10;98550.28;;;1.69;84.43
7966;BME280;4028;43.272;26.932;2024-01-15T01:39:37;98534.03;;;1.65;87.11
7966;BME280;4028;43.272;26.932;2024-01-15T01:42:03;98538.81;;;1.71;88.64
7966;BME280;4028;43.272;26.932;2024-01-15T01:44:28;98533.38;;;1.62;90.95
7966;BME280;4028;43.272;26.932;2024-01-15T01:46:54;98525.97;;;1.55;92.42
7966;BME280;4028;43.272;26.932;2024-01-15T01:49:20;98533.56;;;1.46;94.00
7966;BME280;4028;43.272;26.932;2024-01-15T01:51:46;98540.84;;;1.41;96.94
7966;BME280;4028;43.272;26.932;2024-01-15T01:54:12;98527.88;;;1.14;100.00
7966;BME280;4028;43.272;26.932;2024-01-15T01:56:40;98536.22;;;1.19;100.00
7966;BME280;4028;43.272;26.932;2024-01-15T01:59:07;98533.63;;;1.19;100.00
7966;BME280;4028;43.272;26.932;2024-01-15T02:01:35;98535.38;;;1.18;100.00
7966;BME280;4028;43.272;26.932;2024-01-15T02:04:01;98538.28;;;1.14;100.00
7966;BME280;4028;43.272;26.932;2024-01-15T02:06:26;98531.84;;;1.19;100.00
7966;BME280;4028;43.272;26.932;2024-01-15T02:08:53;98532.00;;;1.03;100.00
7966;BME280;4028;43.272;26.932;2024-01-15T02:11:18;98537.69;;;0.96;100.00
7966;BME280;4028;43.272;26.932;2024-01-15T02:13:44;98530.34;;;1.02;100.00
7966;BME280;4028;43.272;26.932;2024-01-15T02:16:09;98526.94;;;1.15;100.00
7966;BME280;4028;43.272;26.932;2024-01-15T02:18:42;98534.84;;;0.86;100.00
7966;BME280;4028;43.272;26.932;2024-01-15T02:21:09;98524.41;;;0.86;100.00
7966;BME280;4028;43.272;26.932;2024-01-15T02:23:34;98526.13;;;0.87;100.00
7966;BME280;4028;43.272;26.932;2024-01-15T02:26:00;98510.78;;;0.83;100.00
7966;BME280;4028;43.272;26.932;2024-01-15T02:28:26;98518.72;;;0.67;100.00
7966;BME280;4028;43.272;26.932;2024-01-15T02:30:52;98518.13;;;0.35;100.00
7966;BME280;4028;43.272;26.932;2024-01-15T02:33:17;98514.66;;;0.48;100.00
7966;BME280;4028;43.272;26.932;2024-01-15T02:35:43;98519.63;;;0.66;100.00
7966;BME280;4028;43.272;26.932;2024-01-15T02:38:08;98511.56;;;0.56;100.00
7966;BME280;4028;43.272;26.932;2024-01-15T02:40:34;98513.34;;;0.56;100.00
7966;BME280;4028;43.272;26.932;2024-01-15T02:43:00;98508.34;;;0.52;100.00
7966;BME280;4028;43.272;26.932;2024-01-15T02:45:25;98506.47;;;0.55;100.00
7966;BME280;4028;43.272;26.932;2024-01-15T02:47:51;98500.25;;;0.57;100.00
7966;BME280;4028;43.272;26.932;2024-01-15T02:50:16;98502.75;;;0.59;100.00
7966;BME280;4028;43.272;26.932;2024-01-15T02:52:42;98501.25;;;0.82;100.00
7966;BME280;4028;43.272;26.932;2024-01-15T02:55:08;98499.66;;;0.93;100.00
7966;BME280;4028;43.272;26.932;2024-01-15T02:57:34;98488.19;;;0.96;100.00
7966;BME280;4028;43.272;26.932;2024-01-15T02:59:59;98496.88;;;0.55;100.00
7966;BME280;4028;43.272;26.932;2024-01-15T03:02:58;98505.91;;;0.49;100.00
7966;BME280;4028;43.272;26.932;2024-01-15T03:05:24;98500.72;;;0.49;100.00
7966;BME280;4028;43.272;26.932;2024-01-15T03:07:49;98501.56;;;0.36;100.00
7966;BME280;4028;43.272;26.932;2024-01-15T03:10:15;98487.13;;;0.03;100.00
7966;BME280;4028;43.272;26.932;2024-01-15T03:12:40;98492.50;;;0.14;100.00
7966;BME280;4028;43.272;26.932;2024-01-15T03:15:06;98468.09;;;0.03;100.00
7966;BME280;4028;43.272;26.932;2024-01-15T03:17:31;98490.72;;;0.29;100.00
7966;BME280;4028;43.272;26.932;2024-01-15T03:19:57;98494.81;;;0.33;100.00
7966;BME280;4028;43.272;26.932;2024-01-15T03:22:23;98497.63;;;0.16;100.00
7966;BME280;4028;43.272;26.932;2024-01-15T03:24:48;98494.28;;;-0.01;100.00
7966;BME280;4028;43.272;26.932;2024-01-15T03:27:13;98489.81;;;0.16;100.00
7966;BME280;4028;43.272;26.932;2024-01-15T03:29:40;98492.38;;;0.30;100.00
7966;BME280;4028;43.272;26.932;2024-01-15T03:32:05;98492.19;;;0.33;100.00
7966;BME280;4028;43.272;26.932;2024-01-15T03:34:31;98490.53;;;0.32;100.00
7966;BME280;4028;43.272;26.932;2024-01-15T03:36:56;98472.63;;;-0.01;100.00
7966;BME280;4028;43.272;26.932;2024-01-15T03:39:22;98492.81;;;-0.05;100.00
7966;BME280;4028;43.272;26.932;2024-01-15T03:41:47;98497.25;;;0.08;100.00
7966;BME280;4028;43.272;26.932;2024-01-15T03:44:13;98490.00;;;-0.02;100.00
7966;BME280;4028;43.272;26.932;2024-01-15T03:46:38;98497.72;;;-0.14;100.00
7966;BME280;4028;43.272;26.932;2024-01-15T03:49:04;98498.19;;;0.07;100.00
7966;BME280;4028;43.272;26.932;2024-01-15T03:51:29;98480.44;;;-0.01;100.00
7966;BME280;4028;43.272;26.932;2024-01-15T03:53:54;98494.66;;;0.08;100.00
7966;BME280;4028;43.272;26.932;2024-01-15T03:56:20;98488.69;;;0.20;100.00
7966;BME280;4028;43.272;26.932;2024-01-15T03:58:45;98487.00;;;0.19;100.00
7966;BME280;4028;43.272;26.932;2024-01-15T04:01:11;98490.66;;;0.02;100.00
7966;BME280;4028;43.272;26.932;2024-01-15T04:03:37;98504.59;;;0.01;100.00
7966;BME280;4028;43.272;26.932;2024-01-15T04:06:03;98502.63;;;0.05;100.00
7966;BME280;4028;43.272;26.932;2024-01-15T04:08:29;98480.72;;;-0.06;100.00
7966;BME280;4028;43.272;26.932;2024-01-15T04:10:54;98495.03;;;0.16;100.00
7966;BME280;4028;43.272;26.932;2024-01-15T04:13:20;98492.53;;;0.00;100.00
7966;BME280;4028;43.272;26.932;2024-01-15T04:15:46;98493.09;;;-0.09;100.00
7966;BME280;4028;43.272;26.932;2024-01-15T04:18:11;98500.59;;;0.10;100.00
7966;BME280;4028;43.272;26.932;2024-01-15T04:20:36;98502.63;;;0.19;100.00
7966;BME280;4028;43.272;26.932;2024-01-15T04:23:02;98496.47;;;0.20;100.00
7966;BME280;4028;43.272;26.932;2024-01-15T04:25:28;98499.56;;;0.27;100.00
7966;BME280;4028;43.272;26.932;2024-01-15T04:27:53;98498.13;;;0.35;100.00
7966;BME280;4028;43.272;26.932;2024-01-15T04:30:19;98510.81;;;-0.02;100.00
7966;BME280;4028;43.272;26.932;2024-01-15T04:32:44;98508.41;;;-0.05;100.00
7966;BME280;4028;43.272;26.932;2024-01-15T04:35:09;98507.28;;;-0.29;100.00
7966;BME280;4028;43.272;26.932;2024-01-15T04:37:35;98510.44;;;-0.24;100.00
7966;BME280;4028;43.272;26.932;2024-01-15T04:40:00;98496.34;;;-0.20;100.00
7966;BME280;4028;43.272;26.932;2024-01-15T04:42:26;98522.88;;;-0.29;100.00
7966;BME280;4028;43.272;26.932;2024-01-15T04:44:51;98516.94;;;-0.17;100.00
7966;BME280;4028;43.272;26.932;2024-01-15T04:47:17;98519.44;;;-0.30;100.00
7966;BME280;4028;43.272;26.932;2024-01-15T04:49:42;98515.06;;;-0.43;100.00
7966;BME280;4028;43.272;26.932;2024-01-15T04:52:08;98514.78;;;-0.39;100.00
7966;BME280;4028;43.272;26.932;2024-01-15T04:54:36;98525.28;;;-0.40;100.00
7966;BME280;4028;43.272;26.932;2024-01-15T04:57:01;98525.44;;;-0.43;100.00
7966;BME280;4028;43.272;26.932;2024-01-15T04:59:27;98516.28;;;-0.35;100.00
7966;BME280;4028;43.272;26.932;2024-01-15T05:01:53;98517.69;;;-0.29;100.00
7966;BME280;4028;43.272;26.932;2024-01-15T05:04:18;98510.03;;;-0.61;100.00
7966;BME280;4028;43.272;26.932;2024-01-15T05:06:44;98511.28;;;-0.68;100.00
7966;BME280;4028;43.272;26.932;2024-01-15T05:09:09;98509.72;;;-0.70;100.00
7966;BME280;4028;43.272;26.932;2024-01-15T05:11:35;98507.81;;;-0.38;100.00
7966;BME280;4028;43.272;26.932;2024-01-15T05:14:00;98510.25;;;-0.21;100.00
7966;BME280;4028;43.272;26.932;2024-01-15T05:16:26;98503.09;;;-0.17;100.00
7966;BME280;4028;43.272;26.932;2024-01-15T05:18:51;98498.72;;;-0.31;100.00
7966;BME280;4028;43.272;26.932;2024-01-15T05:21:17;98500.22;;;-0.27;100.00
7966;BME280;4028;43.272;26.932;2024-01-15T05:23:42;98502.19;;;-0.31;100.00
7966;BME280;4028;43.272;26.932;2024-01-15T05:26:08;98498.53;;;-0.42;100.00
7966;BME280;4028;43.272;26.932;2024-01-15T05:28:36;98493.34;;;-0.87;100.00
7966;BME280;4028;43.272;26.932;2024-01-15T05:31:01;98494.19;;;-0.86;100.00
7966;BME280;4028;43.272;26.932;2024-01-15T05:33:27;98494.13;;;-1.00;100.00
7966;BME280;4028;43.272;26.932;2024-01-15T05:35:52;98494.13;;;-0.70;100.00
7966;BME280;4028;43.272;26.932;2024-01-15T05:38:19;98495.69;;;-0.98;100.00
7966;BME280;4028;43.272;26.932;2024-01-15T05:40:44;98493.34;;;-1.02;100.00
7966;BME280;4028;43.272;26.932;2024-01-15T05:43:10;98489.41;;;-0.94;100.00
7966;BME280;4028;43.272;26.932;2024-01-15T05:45:35;98490.91;;;-0.90;100.00
7966;BME280;4028;43.272;26.932;2024-01-15T05:48:01;98491.16;;;-0.64;100.00
7966;BME280;4028;43.272;26.932;2024-01-15T05:50:26;98460.94;;;-0.51;100.00
7966;BME280;4028;43.272;26.932;2024-01-15T05:52:52;98487.31;;;-0.73;100.00
7966;BME280;4028;43.272;26.932;2024-01-15T05:55:17;98481.78;;;-0.67;100.00
7966;BME280;4028;43.272;26.932;2024-01-15T05:57:44;98490.34;;;-0.65;100.00
7966;BME280;4028;43.272;26.932;2024-01-15T06:00:10;98493.81;;;-0.80;100.00
7966;BME280;4028;43.272;26.932;2024-01-15T06:02:37;98504.25;;;-0.52;100.00
7966;BME280;4028;43.272;26.932;2024-01-15T06:05:03;98483.47;;;-0.52;100.00
7966;BME280;4028;43.272;26.932;2024-01-15T06:07:29;98502.38;;;-0.64;100.00
7966;BME280;4028;43.272;26.932;2024-01-15T06:09:54;98492.88;;;-0.79;100.00
7966;BME280;4028;43.272;26.932;2024-01-15T06:12:22;98494.16;;;-0.56;100.00
7966;BME280;4028;43.272;26.932;2024-01-15T06:14:47;98493.06;;;-0.82;100.00
7966;BME280;4028;43.272;26.932;2024-01-15T06:17:13;98502.44;;;-0.80;100.00
7966;BME280;4028;43.272;26.932;2024-01-15T06:19:38;98494.34;;;-0.89;100.00
7966;BME280;4028;43.272;26.932;2024-01-15T06:22:04;98496.16;;;-0.75;100.00
7966;BME280;4028;43.272;26.932;2024-01-15T06:24:29;98497.25;;;-0.80;100.00
7966;BME280;4028;43.272;26.932;2024-01-15T06:26:55;98497.97;;;-0.77;100.00
7966;BME280;4028;43.272;26.932;2024-01-15T06:29:20;98497.34;;;-0.67;100.00
7966;BME280;4028;43.272;26.932;2024-01-15T06:31:46;98484.25;;;-0.35;100.00
7966;BME280;4028;43.272;26.932;2024-01-15T06:34:12;98487.56;;;-0.47;100.00
7966;BME280;4028;43.272;26.932;2024-01-15T06:36:37;98489.81;;;-0.27;100.00
7966;BME280;4028;43.272;26.932;2024-01-15T06:39:03;98489.44;;;-0.35;100.00
7966;BME280;4028;43.272;26.932;2024-01-15T06:41:28;98493.91;;;-0.23;100.00
7966;BME280;4028;43.272;26.932;2024-01-15T06:43:54;98490.94;;;-0.17;100.00
7966;BME280;4028;43.272;26.932;2024-01-15T06:46:21;98479.31;;;-0.11;100.00
7966;BME280;4028;43.272;26.932;2024-01-15T06:48:47;98481.66;;;-0.07;100.00
7966;BME280;4028;43.272;26.932;2024-01-15T06:51:12;98452.25;;;0.20;100.00
7966;BME280;4028;43.272;26.932;2024-01-15T06:53:38;98471.94;;;0.24;100.00
7966;BME280;4028;43.272;26.932;2024-01-15T06:56:04;98471.50;;;0.32;100.00
7966;BME280;4028;43.272;26.932;2024-01-15T06:58:31;98470.31;;;0.50;100.00
7966;BME280;4028;43.272;26.932;2024-01-15T07:00:56;98468.72;;;0.62;100.00
7966;BME280;4028;43.272;26.932;2024-01-15T07:03:22;98470.97;;;0.81;100.00
7966;BME280;4028;43.272;26.932;2024-01-15T07:05:47;98469.94;;;0.83;100.00
7966;BME280;4028;43.272;26.932;2024-01-15T07:08:13;98464.44;;;0.88;100.00
7966;BME280;4028;43.272;26.932;2024-01-15T07:10:38;98456.44;;;1.03;100.00
7966;BME280;4028;43.272;26.932;2024-01-15T07:13:04;98458.47;;;1.25;100.00
7966;BME280;4028;43.272;26.932;2024-01-15T07:15:30;98455.25;;;1.35;100.00
7966;BME280;4028;43.272;26.932;2024-01-15T07:17:56;98454.41;;;1.34;100.00
7966;BME280;4028;43.272;26.932;2024-01-15T07:20:22;98467.63;;;1.31;100.00
7966;BME280;4028;43.272;26.932;2024-01-15T07:22:47;98452.66;;;1.35;100.00
7966;BME280;4028;43.272;26.932;2024-01-15T07:25:13;98459.84;;;1.69;100.00
7966;BME280;4028;43.272;26.932;2024-01-15T07:27:38;98458.91;;;1.70;100.00
7966;BME280;4028;43.272;26.932;2024-01-15T07:30:04;98460.78;;;1.81;100.00
7966;BME280;4028;43.272;26.932;2024-01-15T07:32:31;98460.03;;;1.79;100.00
7966;BME280;4028;43.272;26.932;2024-01-15T07:34:57;98459.19;;;1.78;100.00
7966;BME280;4028;43.272;26.932;2024-01-15T07:37:24;98454.63;;;1.95;100.00
7966;BME280;4028;43.272;26.932;2024-01-15T07:39:50;98441.28;;;2.23;100.00
7966;BME280;4028;43.272;26.932;2024-01-15T07:42:15;98438.47;;;2.50;100.00
7966;BME280;4028;43.272;26.932;2024-01-15T07:44:41;98450.00;;;2.72;100.00
7966;BME280;4028;43.272;26.932;2024-01-15T07:47:06;98449.38;;;2.92;100.00
7966;BME280;4028;43.272;26.932;2024-01-15T07:49:31;98449.25;;;3.18;100.00
7966;BME280;4028;43.272;26.932;2024-01-15T07:51:57;98433.81;;;3.37;98.77
7966;BME280;4028;43.272;26.932;2024-01-15T07:54:22;98439.44;;;3.55;97.51
7966;BME280;4028;43.272;26.932;2024-01-15T07:56:56;98432.56;;;3.65;96.23
7966;BME280;4028;43.272;26.932;2024-01-15T07:59:21;98436.13;;;3.75;94.62
7966;BME280;4028;43.272;26.932;2024-01-15T08:01:47;98435.88;;;3.78;87.71
7966;BME280;4028;43.272;26.932;2024-01-15T08:04:12;98434.59;;;3.95;83.16
7966;BME280;4028;43.272;26.932;2024-01-15T08:06:38;98435.50;;;4.28;77.28
7966;BME280;4028;43.272;26.932;2024-01-15T08:09:04;98433.59;;;4.41;76.54
7966;BME280;4028;43.272;26.932;2024-01-15T08:11:30;98432.25;;;4.58;72.29
7966;BME280;4028;43.272;26.932;2024-01-15T08:13:55;98426.72;;;4.72;70.68
7966;BME280;4028;43.272;26.932;2024-01-15T08:16:21;98422.50;;;4.81;68.51
7966;BME280;4028;43.272;26.932;2024-01-15T08:18:47;98432.25;;;4.90;64.88
7966;BME280;4028;43.272;26.932;2024-01-15T08:21:13;98424.31;;;5.01;64.81
7966;BME280;4028;43.272;26.932;2024-01-15T08:23:38;98428.56;;;5.13;64.86
7966;BME280;4028;43.272;26.932;2024-01-15T08:26:04;98425.13;;;5.34;63.28
7966;BME280;4028;43.272;26.932;2024-01-15T08:28:30;98407.97;;;5.30;63.79
7966;BME280;4028;43.272;26.932;2024-01-15T08:30:56;98407.25;;;5.48;61.86
7966;BME280;4028;43.272;26.932;2024-01-15T08:33:21;98409.22;;;5.56;62.28
7966;BME280;4028;43.272;26.932;2024-01-15T08:35:47;98403.91;;;5.46;63.66
7966;BME280;4028;43.272;26.932;2024-01-15T08:38:13;98402.03;;;5.79;61.82
7966;BME280;4028;43.272;26.932;2024-01-15T08:40:38;98408.97;;;5.90;60.25
7966;BME280;4028;43.272;26.932;2024-01-15T08:43:03;98423.31;;;6.07;59.80
7966;BME280;4028;43.272;26.932;2024-01-15T08:45:29;98403.41;;;6.04;60.37
7966;BME280;4028;43.272;26.932;2024-01-15T08:47:55;98411.50;;;6.32;58.64
7966;BME280;4028;43.272;26.932;2024-01-15T08:50:20;98407.59;;;6.26;55.67
7966;BME280;4028;43.272;26.932;2024-01-15T08:52:46;98404.34;;;6.03;56.13
7966;BME280;4028;43.272;26.932;2024-01-15T08:55:12;98406.84;;;6.05;52.15
7966;BME280;4028;43.272;26.932;2024-01-15T08:57:38;98388.44;;;5.95;52.80
7966;BME280;4028;43.272;26.932;2024-01-15T09:00:04;98386.66;;;5.95;52.07
7966;BME280;4028;43.272;26.932;2024-01-15T09:02:34;98382.53;;;5.82;51.94
7966;BME280;4028;43.272;26.932;2024-01-15T09:05:00;98374.38;;;5.75;51.48
7966;BME280;4028;43.272;26.932;2024-01-15T09:07:25;98379.59;;;5.96;51.32
7966;BME280;4028;43.272;26.932;2024-01-15T09:09:52;98369.03;;;5.86;51.96
7966;BME280;4028;43.272;26.932;2024-01-15T09:12:18;98369.59;;;5.90;52.83
7966;BME280;4028;43.272;26.932;2024-01-15T09:14:46;98373.69;;;5.83;52.39
7966;BME280;4028;43.272;26.932;2024-01-15T09:17:11;98358.59;;;5.96;51.97
7966;BME280;4028;43.272;26.932;2024-01-15T09:19:37;98337.34;;;6.18;51.17
7966;BME280;4028;43.272;26.932;2024-01-15T09:22:05;98340.13;;;6.27;51.22
7966;BME280;4028;43.272;26.932;2024-01-15T09:24:31;98338.31;;;6.17;51.41
7966;BME280;4028;43.272;26.932;2024-01-15T09:26:56;98334.31;;;6.33;51.14
7966;BME280;4028;43.272;26.932;2024-01-15T09:29:22;98328.81;;;6.36;51.30
7966;BME280;4028;43.272;26.932;2024-01-15T09:31:49;98331.41;;;6.26;52.20
7966;BME280;4028;43.272;26.932;2024-01-15T09:34:15;98325.47;;;6.53;51.59
7966;BME280;4028;43.272;26.932;2024-01-15T09:36:41;98310.84;;;6.50;52.37
7966;BME280;4028;43.272;26.932;2024-01-15T09:39:08;98322.19;;;6.61;51.59
7966;BME280;4028;43.272;26.932;2024-01-15T09:41:37;98292.84;;;6.36;52.67
7966;BME280;4028;43.272;26.932;2024-01-15T09:44:03;98298.38;;;6.53;52.91
7966;BME280;4028;43.272;26.932;2024-01-15T09:46:33;98293.13;;;6.62;52.74
7966;BME280;4028;43.272;26.932;2024-01-15T09:48:59;98280.47;;;6.85;52.40
7966;BME280;4028;43.272;26.932;2024-01-15T09:51:24;98272.91;;;6.63;52.64
7966;BME280;4028;43.272;26.932;2024-01-15T09:53:50;98277.59;;;6.78;52.79
7966;BME280;4028;43.272;26.932;2024-01-15T09:56:17;98281.63;;;6.73;53.09
7966;BME280;4028;43.272;26.932;2024-01-15T09:58:42;98278.97;;;6.92;52.58
7966;BME280;4028;43.272;26.932;2024-01-15T10:01:08;98237.22;;;6.60;52.58
7966;BME280;4028;43.272;26.932;2024-01-15T10:03:35;98268.63;;;6.71;53.38
7966;BME280;4028;43.272;26.932;2024-01-15T10:06:01;98264.47;;;6.59;54.38
7966;BME280;4028;43.272;26.932;2024-01-15T10:08:28;98262.38;;;6.72;54.52
7966;BME280;4028;43.272;26.932;2024-01-15T10:10:53;98250.09;;;6.63;55.36
7966;BME280;4028;43.272;26.932;2024-01-15T10:13:19;98249.41;;;6.71;55.10
7966;BME280;4028;43.272;26.932;2024-01-15T10:15:46;98239.97;;;6.68;54.55
7966;BME280;4028;43.272;26.932;2024-01-15T10:18:12;98239.94;;;6.88;54.84
7966;BME280;4028;43.272;26.932;2024-01-15T10:20:39;98231.53;;;6.74;54.01
7966;BME280;4028;43.272;26.932;2024-01-15T10:23:04;98230.69;;;6.84;53.60
7966;BME280;4028;43.272;26.932;2024-01-15T10:25:30;98225.06;;;7.06;53.04
7966;BME280;4028;43.272;26.932;2024-01-15T10:28:00;98222.41;;;7.16;52.75
7966;BME280;4028;43.272;26.932;2024-01-15T10:30:26;98212.16;;;7.22;53.23
7966;BME280;4028;43.272;26.932;2024-01-15T10:33:02;98199.88;;;7.31;53.95
7966;BME280;4028;43.272;26.932;2024-01-15T10:35:32;98202.63;;;7.39;52.60
7966;BME280;4028;43.272;26.932;2024-01-15T10:37:58;98195.91;;;7.72;51.58
7966;BME280;4028;43.272;26.932;2024-01-15T10:40:24;98181.34;;;7.78;50.31
7966;BME280;4028;43.272;26.932;2024-01-15T10:42:50;98179.81;;;8.11;49.89
7966;BME280;4028;43.272;26.932;2024-01-15T10:45:16;98170.41;;;8.26;49.50
7966;BME280;4028;43.272;26.932;2024-01-15T10:47:42;98174.84;;;8.44;50.05
7966;BME280;4028;43.272;26.932;2024-01-15T10:50:08;98173.47;;;8.57;48.41
7966;BME280;4028;43.272;26.932;2024-01-15T10:52:35;98167.97;;;8.51;47.77
7966;BME280;4028;43.272;26.932;2024-01-15T10:55:03;98168.81;;;8.51;47.63
7966;BME280;4028;43.272;26.932;2024-01-15T10:57:29;98160.75;;;8.35;47.59
7966;BME280;4028;43.272;26.932;2024-01-15T10:59:55;98160.53;;;8.46;47.74
7966;BME280;4028;43.272;26.932;2024-01-15T11:02:21;98158.16;;;8.61;46.72
7966;BME280;4028;43.272;26.932;2024-01-15T11:04:46;98147.16;;;8.40;48.36
7966;BME280;4028;43.272;26.932;2024-01-15T11:07:13;98152.25;;;8.41;47.81
7966;BME280;4028;43.272;26.932;2024-01-15T11:09:39;98144.19;;;8.43;47.75
7966;BME280;4028;43.272;26.932;2024-01-15T11:12:11;98155.47;;;8.53;47.56
7966;BME280;4028;43.272;26.932;2024-01-15T11:14:42;98145.34;;;8.66;47.11
7966;BME280;4028;43.272;26.932;2024-01-15T11:17:12;98142.59;;;8.76;47.15
7966;BME280;4028;43.272;26.932;2024-01-15T11:19:43;98139.50;;;8.80;47.23
7966;BME280;4028;43.272;26.932;2024-01-15T11:22:10;98140.78;;;8.76;47.86
7966;BME280;4028;43.272;26.932;2024-01-15T11:24:40;98136.91;;;8.63;48.24
7966;BME280;4028;43.272;26.932;2024-01-15T11:27:07;98128.56;;;8.49;48.50
7966;BME280;4028;43.272;26.932;2024-01-15T11:29:34;98121.91;;;8.37;48.72
7966;BME280;4028;43.272;26.932;2024-01-15T11:32:07;98120.13;;;8.20;49.39
7966;BME280;4028;43.272;26.932;2024-01-15T11:37:21;98111.06;;;8.22;49.46
7966;BME280;4028;43.272;26.932;2024-01-15T11:39:51;98114.63;;;8.13;49.49
7966;BME280;4028;43.272;26.932;2024-01-15T11:42:16;98090.19;;;8.03;49.41
7966;BME280;4028;43.272;26.932;2024-01-15T11:44:44;98106.72;;;8.13;50.04
7966;BME280;4028;43.272;26.932;2024-01-15T11:47:11;98088.97;;;7.97;50.05
7966;BME280;4028;43.272;26.932;2024-01-15T11:52:23;98103.94;;;8.15;50.15
7966;BME280;4028;43.272;26.932;2024-01-15T11:55:01;98100.06;;;8.27;50.03
7966;BME280;4028;43.272;26.932;2024-01-15T11:57:40;98094.03;;;8.34;50.72
7966;BME280;4028;43.272;26.932;2024-01-15T12:00:08;98080.41;;;8.39;50.99
7966;BME280;4028;43.272;26.932;2024-01-15T12:02:34;98062.72;;;8.57;50.59
7966;BME280;4028;43.272;26.932;2024-01-15T12:05:00;98070.63;;;8.57;50.65
7966;BME280;4028;43.272;26.932;2024-01-15T12:07:25;98059.97;;;8.67;49.83
7966;BME280;4028;43.272;26.932;2024-01-15T12:09:50;98063.81;;;8.81;50.14
7966;BME280;4028;43.272;26.932;2024-01-15T12:12:39;98062.66;;;8.75;49.93
7966;BME280;4028;43.272;26.932;2024-01-15T12:15:11;98038.69;;;8.61;49.50
7966;BME280;4028;43.272;26.932;2024-01-15T12:17:38;98068.41;;;8.71;50.08
7966;BME280;4028;43.272;26.932;2024-01-15T12:20:04;98070.22;;;8.70;49.91
7966;BME280;4028;43.272;26.932;2024-01-15T12:22:31;98070.06;;;8.80;49.62
7966;BME280;4028;43.272;26.932;2024-01-15T12:24:56;98065.47;;;8.90;49.42
7966;BME280;4028;43.272;26.932;2024-01-15T12:27:23;98073.59;;;8.97;49.38
7966;BME280;4028;43.272;26.932;2024-01-15T12:29:49;98068.34;;;9.05;49.56
7966;BME280;4028;43.272;26.932;2024-01-15T12:32:14;98076.94;;;9.07;49.51
7966;BME280;4028;43.272;26.932;2024-01-15T12:34:40;98067.38;;;9.06;49.73
7966;BME280;4028;43.272;26.932;2024-01-15T12:37:07;98062.59;;;9.09;49.45
7966;BME280;4028;43.272;26.932;2024-01-15T12:39:34;98046.31;;;9.22;49.06
7966;BME280;4028;43.272;26.932;2024-01-15T12:42:01;98048.25;;;9.20;48.75
7966;BME280;4028;43.272;26.932;2024-01-15T12:44:27;98041.69;;;9.24;48.98
7966;BME280;4028;43.272;26.932;2024-01-15T12:46:53;98032.09;;;9.07;49.32
7966;BME280;4028;43.272;26.932;2024-01-15T12:49:18;98022.53;;;9.06;48.79
7966;BME280;4028;43.272;26.932;2024-01-15T12:51:54;98023.16;;;9.08;49.10
7966;BME280;4028;43.272;26.932;2024-01-15T12:54:22;98028.13;;;9.11;49.20
7966;BME280;4028;43.272;26.932;2024-01-15T12:56:49;98030.59;;;9.13;49.72
7966;BME280;4028;43.272;26.932;2024-01-15T12:59:14;98035.53;;;9.16;50.19
7966;BME280;4028;43.272;26.932;2024-01-15T13:01:40;98026.50;;;9.18;50.56
7966;BME280;4028;43.272;26.932;2024-01-15T13:04:07;98020.88;;;9.13;50.82
7966;BME280;4028;43.272;26.932;2024-01-15T13:06:34;98012.31;;;9.11;51.17
7966;BME280;4028;43.272;26.932;2024-01-15T13:09:00;98019.53;;;9.01;53.74
7966;BME280;4028;43.272;26.932;2024-01-15T13:11:27;98007.44;;;8.82;55.05
7966;BME280;4028;43.272;26.932;2024-01-15T13:13:52;98018.94;;;8.73;56.03
7966;BME280;4028;43.272;26.932;2024-01-15T13:16:18;98017.31;;;8.72;56.31